Time;durP1;ratioP1;P1;durP2;ratioP2;P2;SDS_P1;SDS_P2;PMS_P1;PMS_P2;Temp;Humidity;BMP_temperature;BMP_pressure;BME280_temperature;BME280_humidity;BME280_pressure;Samples;Min_cycle;Max_cycle;Signal;HPM_P1;HPM_P2
2021/03/08 00:00:14;;;;;;;;;;;21.30;33.40;;;;;;500616;237;977;-45
2021/03/08 00:02:15;;;;;;;;;;;21.30;33.40;;;;;;500401;237;1065;-45
2021/03/08 00:04:16;;;;;;;;;;;21.30;33.50;;;;;;500505;237;1238;-45
2021/03/08 00:06:18;;;;;;;;;;;21.30;33.40;;;;;;500724;237;1071;-45
2021/03/08 00:08:19;;;;;;;;;;;21.30;33.40;;;;;;500491;237;1038;-45
2021/03/08 00:10:20;;;;;;;;;;;21.40;33.50;;;;;;500428;237;1050;-45
2021/03/08 00:12:22;;;;;;;;;;;21.30;33.40;;;;;;500381;237;1219;-45
2021/03/08 00:14:23;;;;;;;;;;;21.30;33.40;;;;;;500687;237;1065;-45
2021/03/08 00:16:24;;;;;;;;;;;21.30;33.50;;;;;;500819;237;1156;-45
2021/03/08 00:18:25;;;;;;;;;;;21.40;33.50;;;;;;500607;237;2245;-45
2021/03/08 00:20:27;;;;;;;;;;;21.40;33.50;;;;;;500729;237;1027;-46
2021/03/08 00:22:28;;;;;;;;;;;21.30;33.40;;;;;;500623;237;1222;-45
2021/03/08 00:24:29;;;;;;;;;;;21.40;33.50;;;;;;500409;237;1059;-45
2021/03/08 00:26:30;;;;;;;;;;;21.30;33.40;;;;;;500313;237;1070;-45
2021/03/08 00:28:32;;;;;;;;;;;21.40;33.50;;;;;;500404;237;1222;-45
2021/03/08 00:30:33;;;;;;;;;;;21.40;33.50;;;;;;500686;237;1044;-45
2021/03/08 00:32:34;;;;;;;;;;;21.40;33.40;;;;;;500620;237;1191;-45
2021/03/08 00:34:36;;;;;;;;;;;21.40;33.40;;;;;;500863;237;1068;-45
2021/03/08 00:36:37;;;;;;;;;;;21.40;33.40;;;;;;500673;237;1008;-45
2021/03/08 00:38:38;;;;;;;;;;;21.40;33.40;;;;;;500760;237;2133;-45
2021/03/08 00:40:40;;;;;;;;;;;21.40;33.40;;;;;;500509;237;1100;-45
2021/03/08 00:42:41;;;;;;;;;;;21.40;33.50;;;;;;500686;237;1039;-45
2021/03/08 00:44:42;;;;;;;;;;;21.40;33.40;;;;;;500415;237;1036;-45
2021/03/08 00:46:44;;;;;;;;;;;21.40;33.40;;;;;;500757;237;1063;-45
2021/03/08 00:48:45;;;;;;;;;;;21.40;33.40;;;;;;500624;237;934;-45
2021/03/08 00:50:46;;;;;;;;;;;21.40;33.50;;;;;;500390;237;1049;-45
2021/03/08 00:52:47;;;;;;;;;;;21.40;33.40;;;;;;500704;237;1071;-45
2021/03/08 00:54:49;;;;;;;;;;;21.40;33.50;;;;;;500608;237;1029;-45
2021/03/08 00:56:50;;;;;;;;;;;21.40;33.50;;;;;;500317;237;1128;-45
2021/03/08 00:58:51;;;;;;;;;;;21.40;33.50;;;;;;500370;237;2184;-45
2021/03/08 01:00:53;;;;;;;;;;;21.40;33.50;;;;;;500429;237;1052;-45
2021/03/08 01:02:54;;;;;;;;;;;21.40;33.50;;;;;;500405;237;1173;-45
2021/03/08 01:04:55;;;;;;;;;;;21.40;33.40;;;;;;500410;237;1084;-45
2021/03/08 01:06:56;;;;;;;;;;;21.40;33.40;;;;;;500354;237;1036;-45
2021/03/08 01:08:58;;;;;;;;;;;21.40;33.40;;;;;;500501;237;1172;-45
2021/03/08 01:10:59;;;;;;;;;;;21.40;33.40;;;;;;500771;237;1073;-45
2021/03/08 01:13:00;;;;;;;;;;;21.40;33.40;;;;;;500480;237;1384;-45
2021/03/08 01:15:01;;;;;;;;;;;21.40;33.40;;;;;;500434;237;1340;-45
2021/03/08 01:17:03;;;;;;;;;;;21.40;33.40;;;;;;500638;237;1007;-45
2021/03/08 01:19:04;;;;;;;;;;;21.50;33.50;;;;;;500726;237;2136;-45
2021/03/08 01:21:05;;;;;;;;;;;21.50;33.50;;;;;;500360;237;1343;-45
2021/03/08 01:23:07;;;;;;;;;;;21.40;33.40;;;;;;500410;237;1163;-45
2021/03/08 01:25:08;;;;;;;;;;;21.40;33.40;;;;;;500414;237;1078;-45
2021/03/08 01:27:09;;;;;;;;;;;21.40;33.40;;;;;;500536;237;1084;-46
2021/03/08 01:29:10;;;;;;;;;;;21.50;33.50;;;;;;500423;237;1130;-45
2021/03/08 01:31:12;;;;;;;;;;;21.50;33.50;;;;;;500737;237;1228;-45
2021/03/08 01:33:13;;;;;;;;;;;21.50;33.40;;;;;;500880;237;1273;-45
2021/03/08 01:35:15;;;;;;;;;;;21.50;33.40;;;;;;500479;237;1056;-45
2021/03/08 01:37:16;;;;;;;;;;;21.50;33.40;;;;;;500512;237;1268;-45
2021/03/08 01:39:17;;;;;;;;;;;21.50;33.40;;;;;;500814;237;2187;-45
2021/03/08 01:41:18;;;;;;;;;;;21.50;33.50;;;;;;500603;237;1164;-45
2021/03/08 01:43:20;;;;;;;;;;;21.50;33.40;;;;;;500839;237;1047;-45
2021/03/08 01:45:21;;;;;;;;;;;21.50;33.50;;;;;;500406;237;1148;-45
2021/03/08 01:47:22;;;;;;;;;;;21.50;33.40;;;;;;500302;237;1174;-45
2021/03/08 01:49:24;;;;;;;;;;;21.50;33.40;;;;;;500670;237;1081;-45
2021/03/08 01:51:25;;;;;;;;;;;21.50;33.50;;;;;;500377;237;1347;-46
2021/03/08 01:53:26;;;;;;;;;;;21.50;33.50;;;;;;500822;237;1307;-45
2021/03/08 01:55:27;;;;;;;;;;;21.50;33.40;;;;;;500435;237;979;-45
2021/03/08 01:57:29;;;;;;;;;;;21.50;33.40;;;;;;500408;237;999;-45
2021/03/08 01:59:30;;;;;;;;;;;21.50;33.40;;;;;;500531;237;2179;-45
2021/03/08 02:01:31;;;;;;;;;;;21.50;33.40;;;;;;500334;237;1045;-45
2021/03/08 02:03:33;;;;;;;;;;;21.50;33.40;;;;;;500359;237;1226;-45
2021/03/08 02:05:34;;;;;;;;;;;21.50;33.40;;;;;;500382;237;1066;-45
2021/03/08 02:07:35;;;;;;;;;;;21.50;33.30;;;;;;500370;237;1291;-45
2021/03/08 02:09:36;;;;;;;;;;;21.50;33.40;;;;;;500394;237;1085;-45
2021/03/08 02:11:38;;;;;;;;;;;21.50;33.40;;;;;;500396;237;1195;-45
2021/03/08 02:13:39;;;;;;;;;;;21.50;33.40;;;;;;500476;237;1034;-45
2021/03/08 02:15:40;;;;;;;;;;;21.50;33.30;;;;;;500450;237;1364;-45
2021/03/08 02:17:42;;;;;;;;;;;21.50;33.30;;;;;;500808;237;1085;-45
2021/03/08 02:19:43;;;;;;;;;;;21.50;33.40;;;;;;500593;237;2128;-45
2021/03/08 02:21:44;;;;;;;;;;;21.50;33.30;;;;;;500580;237;1181;-44
2021/03/08 02:23:45;;;;;;;;;;;21.60;33.40;;;;;;500446;237;1011;-46
2021/03/08 02:25:47;;;;;;;;;;;21.60;33.30;;;;;;500404;237;1078;-46
2021/03/08 02:27:48;;;;;;;;;;;21.60;33.40;;;;;;500805;237;1073;-45
2021/03/08 02:29:49;;;;;;;;;;;21.50;33.30;;;;;;500422;237;1149;-45
2021/03/08 02:31:50;;;;;;;;;;;21.60;33.40;;;;;;500819;237;1416;-45
2021/03/08 02:33:52;;;;;;;;;;;21.60;33.40;;;;;;500781;237;1037;-45
2021/03/08 02:35:54;;;;;;;;;;;21.60;33.40;;;;;;500333;237;1130;-45
2021/03/08 02:37:54;;;;;;;;;;;21.60;33.40;;;;;;500453;237;2128;-45
2021/03/08 02:39:56;;;;;;;;;;;21.60;33.30;;;;;;500413;237;1083;-45
2021/03/08 02:41:57;;;;;;;;;;;21.60;33.30;;;;;;500557;237;1101;-45
2021/03/08 02:43:58;;;;;;;;;;;21.60;33.30;;;;;;500682;237;1063;-45
2021/03/08 02:45:59;;;;;;;;;;;21.60;33.30;;;;;;500375;237;1139;-45
2021/03/08 02:48:01;;;;;;;;;;;21.60;33.30;;;;;;500454;237;1143;-45
2021/03/08 02:50:02;;;;;;;;;;;21.60;33.30;;;;;;500519;237;1052;-45
2021/03/08 02:52:03;;;;;;;;;;;21.60;33.30;;;;;;500298;237;1364;-45
2021/03/08 02:54:05;;;;;;;;;;;21.60;33.30;;;;;;500819;237;1074;-45
2021/03/08 02:56:06;;;;;;;;;;;21.60;33.30;;;;;;500484;237;1220;-45
2021/03/08 02:58:07;;;;;;;;;;;21.60;33.30;;;;;;500501;237;2188;-45
2021/03/08 03:00:09;;;;;;;;;;;21.60;33.30;;;;;;500685;237;1193;-45
2021/03/08 03:02:10;;;;;;;;;;;21.60;33.30;;;;;;500268;237;1153;-45
2021/03/08 03:04:11;;;;;;;;;;;21.60;33.30;;;;;;500546;237;1039;-45
2021/03/08 03:06:12;;;;;;;;;;;21.60;33.30;;;;;;500356;237;1184;-46
2021/03/08 03:08:14;;;;;;;;;;;21.60;33.30;;;;;;500759;237;1092;-45
2021/03/08 03:10:15;;;;;;;;;;;21.60;33.30;;;;;;500382;237;1116;-46
2021/03/08 03:12:16;;;;;;;;;;;21.60;33.30;;;;;;500349;237;1177;-45
2021/03/08 03:14:18;;;;;;;;;;;21.60;33.30;;;;;;500868;237;1025;-45
2021/03/08 03:16:19;;;;;;;;;;;21.60;33.30;;;;;;500510;237;1112;-45
2021/03/08 03:18:20;;;;;;;;;;;21.60;33.30;;;;;;500380;237;2132;-45
2021/03/08 03:20:21;;;;;;;;;;;21.60;33.20;;;;;;500577;237;1046;-45
2021/03/08 03:22:23;;;;;;;;;;;21.70;33.30;;;;;;500375;237;1082;-45
2021/03/08 03:24:24;;;;;;;;;;;21.60;33.30;;;;;;500487;237;1039;-45
2021/03/08 03:26:25;;;;;;;;;;;21.60;33.30;;;;;;500532;237;1009;-45
2021/03/08 03:28:27;;;;;;;;;;;21.60;33.30;;;;;;500825;237;1168;-45
2021/03/08 03:30:28;;;;;;;;;;;21.60;33.30;;;;;;500695;237;1465;-45
2021/03/08 03:32:29;;;;;;;;;;;21.60;33.30;;;;;;500638;237;1024;-45
2021/03/08 03:34:30;;;;;;;;;;;21.60;33.30;;;;;;500432;237;1121;-45
2021/03/08 03:36:32;;;;;;;;;;;21.60;33.30;;;;;;500423;237;1005;-45
2021/03/08 03:38:33;;;;;;;;;;;21.60;33.30;;;;;;500767;237;2180;-45
2021/03/08 03:40:34;;;;;;;;;;;21.60;33.30;;;;;;500630;237;1094;-45
2021/03/08 03:42:36;;;;;;;;;;;21.60;33.30;;;;;;500382;237;1070;-45
2021/03/08 03:44:37;;;;;;;;;;;21.60;33.30;;;;;;500491;237;1036;-45
2021/03/08 03:46:38;;;;;;;;;;;21.60;33.40;;;;;;500474;237;1201;-45
2021/03/08 03:48:39;;;;;;;;;;;21.60;33.30;;;;;;500346;237;1071;-45
2021/03/08 03:50:41;;;;;;;;;;;21.60;33.30;;;;;;500414;237;1058;-45
2021/03/08 03:52:42;;;;;;;;;;;21.60;33.30;;;;;;500360;237;1229;-45
2021/03/08 03:54:43;;;;;;;;;;;21.70;33.30;;;;;;500478;237;1065;-45
2021/03/08 03:56:44;;;;;;;;;;;21.70;33.30;;;;;;500327;237;1052;-45
2021/03/08 03:58:46;;;;;;;;;;;21.70;33.30;;;;;;500410;237;2184;-45
2021/03/08 04:00:47;;;;;;;;;;;21.70;33.30;;;;;;500408;237;1250;-45
2021/03/08 04:02:49;;;;;;;;;;;21.70;33.30;;;;;;500697;237;1084;-45
2021/03/08 04:04:50;;;;;;;;;;;21.70;33.30;;;;;;500480;237;1090;-45
2021/03/08 04:06:51;;;;;;;;;;;21.70;33.30;;;;;;500502;237;1050;-45
2021/03/08 04:08:53;;;;;;;;;;;21.70;33.30;;;;;;500577;237;1093;-45
2021/03/08 04:10:54;;;;;;;;;;;21.70;33.30;;;;;;500599;237;1243;-45
2021/03/08 04:12:55;;;;;;;;;;;21.60;33.30;;;;;;500355;237;1204;-45
2021/03/08 04:14:56;;;;;;;;;;;21.70;33.30;;;;;;500370;237;1033;-45
2021/03/08 04:16:58;;;;;;;;;;;21.70;33.30;;;;;;500318;237;1232;-45
2021/03/08 04:18:59;;;;;;;;;;;21.70;33.30;;;;;;500456;237;2140;-45
2021/03/08 04:21:00;;;;;;;;;;;21.70;33.30;;;;;;500481;237;1150;-45
2021/03/08 04:23:02;;;;;;;;;;;21.70;33.30;;;;;;500404;237;1150;-45
2021/03/08 04:25:03;;;;;;;;;;;21.70;33.30;;;;;;500595;237;1054;-45
2021/03/08 04:27:06;;;;;;;;;;;21.70;33.40;;;;;;500413;237;1131;-45
2021/03/08 04:29:05;;;;;;;;;;;21.60;33.30;;;;;;500441;237;2249;-45
2021/03/08 04:31:07;;;;;;;;;;;21.70;33.20;;;;;;500578;237;1254;-45
2021/03/08 04:33:08;;;;;;;;;;;21.60;33.40;;;;;;500462;237;1220;-45
2021/03/08 04:35:09;;;;;;;;;;;21.00;34.30;;;;;;500661;237;1191;-45
2021/03/08 04:37:10;;;;;;;;;;;20.40;35.50;;;;;;500525;237;1093;-45
2021/03/08 04:39:12;;;;;;;;;;;19.90;36.30;;;;;;500451;237;2176;-45
2021/03/08 04:41:13;;;;;;;;;;;19.60;37.00;;;;;;500452;237;1036;-45
2021/03/08 04:43:14;;;;;;;;;;;19.30;37.40;;;;;;500564;237;1034;-45
2021/03/08 04:45:16;;;;;;;;;;;19.10;37.70;;;;;;500491;237;1069;-45
2021/03/08 04:47:17;;;;;;;;;;;19.00;38.00;;;;;;500562;237;1081;-45
2021/03/08 04:49:18;;;;;;;;;;;18.90;38.30;;;;;;500448;237;1049;-45
2021/03/08 04:51:19;;;;;;;;;;;18.80;38.50;;;;;;500583;237;1041;-45
2021/03/08 04:53:21;;;;;;;;;;;18.70;38.60;;;;;;500485;237;1036;-44
2021/03/08 04:55:22;;;;;;;;;;;18.70;38.70;;;;;;500499;237;1052;-45
2021/03/08 04:57:23;;;;;;;;;;;18.60;38.80;;;;;;500403;237;1066;-45
2021/03/08 04:59:24;;;;;;;;;;;18.50;38.90;;;;;;500511;237;2125;-45
2021/03/08 05:01:26;;;;;;;;;;;18.50;39.00;;;;;;500323;237;1357;-45
2021/03/08 05:03:27;;;;;;;;;;;18.40;39.00;;;;;;500493;237;1034;-45
2021/03/08 05:05:28;;;;;;;;;;;18.40;39.10;;;;;;500426;237;1450;-45
2021/03/08 05:07:30;;;;;;;;;;;18.30;39.20;;;;;;500559;237;1038;-45
2021/03/08 05:09:31;;;;;;;;;;;18.30;39.30;;;;;;500860;237;1044;-45
2021/03/08 05:11:32;;;;;;;;;;;18.30;39.40;;;;;;500350;237;1060;-45
2021/03/08 05:13:34;;;;;;;;;;;18.20;39.40;;;;;;500438;237;1008;-45
2021/03/08 05:15:35;;;;;;;;;;;18.20;39.40;;;;;;500732;237;1135;-45
2021/03/08 05:17:36;;;;;;;;;;;18.10;39.50;;;;;;500410;237;1212;-45
2021/03/08 05:19:37;;;;;;;;;;;18.10;39.50;;;;;;500522;237;2137;-45
2021/03/08 05:21:39;;;;;;;;;;;18.10;39.60;;;;;;500368;237;1059;-45
2021/03/08 05:23:40;;;;;;;;;;;18.10;39.60;;;;;;500865;237;1050;-45
2021/03/08 05:25:41;;;;;;;;;;;18.00;39.70;;;;;;500590;237;1167;-45
2021/03/08 05:27:42;;;;;;;;;;;18.00;39.80;;;;;;500397;237;1179;-45
2021/03/08 05:29:44;;;;;;;;;;;17.90;39.80;;;;;;500596;237;1022;-45
2021/03/08 05:31:45;;;;;;;;;;;17.90;39.90;;;;;;500277;237;1090;-45
2021/03/08 05:33:46;;;;;;;;;;;17.90;39.80;;;;;;500564;237;1024;-45
2021/03/08 05:35:48;;;;;;;;;;;17.80;39.90;;;;;;500515;237;1244;-45
2021/03/08 05:37:49;;;;;;;;;;;17.80;40.00;;;;;;500655;237;1141;-45
2021/03/08 05:39:50;;;;;;;;;;;17.80;40.00;;;;;;500278;237;2187;-45
2021/03/08 05:41:51;;;;;;;;;;;17.80;40.00;;;;;;500383;237;1146;-45
2021/03/08 05:43:53;;;;;;;;;;;17.80;40.00;;;;;;500750;237;1101;-45
2021/03/08 05:45:54;;;;;;;;;;;17.70;40.00;;;;;;500238;237;1188;-45
2021/03/08 05:47:55;;;;;;;;;;;17.70;40.10;;;;;;500218;237;1137;-45
2021/03/08 05:49:57;;;;;;;;;;;17.60;40.00;;;;;;500225;237;1053;-45
2021/03/08 05:51:58;;;;;;;;;;;17.60;40.10;;;;;;500295;237;1355;-45
2021/03/08 05:53:59;;;;;;;;;;;17.60;40.20;;;;;;500281;237;1153;-45
2021/03/08 05:56:01;;;;;;;;;;;17.60;40.20;;;;;;500166;237;1454;-45
2021/03/08 05:58:02;;;;;;;;;;;17.60;40.10;;;;;;500152;237;1128;-45
2021/03/08 06:00:03;;;;;;;;;;;17.90;39.80;;;;;;500269;237;2188;-45
2021/03/08 06:02:04;;;;;;;;;;;18.30;38.70;;;;;;500418;237;1214;-45
2021/03/08 06:04:06;;;;;;;;;;;18.80;37.70;;;;;;500194;237;1093;-45
2021/03/08 06:06:07;;;;;;;;;;;19.10;37.00;;;;;;500096;237;1074;-45
2021/03/08 06:08:08;;;;;;;;;;;19.40;36.50;;;;;;500169;237;1100;-45
2021/03/08 06:10:12;;;;;;;;;;;19.60;36.20;;;;;;500596;237;1045;-45
2021/03/08 06:12:11;;;;;;;;;;;19.70;35.90;;;;;;500187;237;2026;-45
2021/03/08 06:14:12;;;;;;;;;;;19.80;35.70;;;;;;500522;237;1105;-45
2021/03/08 06:16:13;;;;;;;;;;;19.90;35.50;;;;;;500402;237;1052;-45
2021/03/08 06:18:15;;;;;;;;;;;19.90;35.30;;;;;;500082;237;1286;-45
2021/03/08 06:20:16;;;;;;;;;;;20.00;35.30;;;;;;500139;237;2179;-45
2021/03/08 06:22:17;;;;;;;;;;;20.00;35.20;;;;;;500285;237;1072;-45
2021/03/08 06:24:18;;;;;;;;;;;20.10;35.10;;;;;;500186;237;1105;-45
2021/03/08 06:26:20;;;;;;;;;;;20.10;35.10;;;;;;500049;237;1104;-45
2021/03/08 06:28:21;;;;;;;;;;;20.20;35.00;;;;;;499917;237;1096;-45
2021/03/08 06:30:22;;;;;;;;;;;20.20;34.90;;;;;;499954;237;1149;-45
2021/03/08 06:32:24;;;;;;;;;;;20.20;34.80;;;;;;500096;237;1189;-45
2021/03/08 06:34:25;;;;;;;;;;;20.30;34.80;;;;;;500028;237;1121;-45
2021/03/08 06:36:26;;;;;;;;;;;20.30;34.70;;;;;;500070;237;1144;-45
2021/03/08 06:38:28;;;;;;;;;;;20.30;34.70;;;;;;500037;237;1093;-45
2021/03/08 06:40:30;;;;;;;;;;;20.40;34.60;;;;;;500079;237;2141;-45
2021/03/08 06:42:30;;;;;;;;;;;20.40;34.50;;;;;;499982;237;1898;-45
2021/03/08 06:44:31;;;;;;;;;;;20.40;34.50;;;;;;500100;237;1079;-45
2021/03/08 06:46:33;;;;;;;;;;;20.40;34.50;;;;;;500067;237;1138;-45
2021/03/08 06:48:34;;;;;;;;;;;20.50;34.50;;;;;;500134;237;1218;-45
2021/03/08 06:50:35;;;;;;;;;;;20.50;34.40;;;;;;499952;237;1072;-45
2021/03/08 06:52:36;;;;;;;;;;;20.50;34.30;;;;;;499959;237;1090;-46
2021/03/08 06:54:38;;;;;;;;;;;20.60;34.30;;;;;;500094;237;1162;-45
2021/03/08 06:56:39;;;;;;;;;;;20.60;34.30;;;;;;499964;237;1219;-45
2021/03/08 06:58:40;;;;;;;;;;;20.60;34.20;;;;;;499945;237;1086;-45
2021/03/08 07:00:41;;;;;;;;;;;20.60;34.20;;;;;;499870;237;2191;-45
2021/03/08 07:02:43;;;;;;;;;;;20.70;34.20;;;;;;499652;237;1167;-45
2021/03/08 07:04:44;;;;;;;;;;;20.70;34.10;;;;;;499821;237;1089;-45
2021/03/08 07:06:45;;;;;;;;;;;20.70;34.10;;;;;;499901;237;1176;-45
2021/03/08 07:08:47;;;;;;;;;;;20.70;34.00;;;;;;499666;237;1191;-45
2021/03/08 07:10:49;;;;;;;;;;;20.70;34.00;;;;;;499850;237;1121;-45
2021/03/08 07:12:49;;;;;;;;;;;20.80;34.00;;;;;;499887;237;1832;-45
2021/03/08 07:14:51;;;;;;;;;;;20.80;34.00;;;;;;499793;237;1102;-45
2021/03/08 07:16:52;;;;;;;;;;;20.80;34.00;;;;;;499892;237;1094;-45
2021/03/08 07:18:53;;;;;;;;;;;20.80;34.00;;;;;;499723;237;1193;-45
2021/03/08 07:20:55;;;;;;;;;;;20.80;33.90;;;;;;499830;237;2179;-45
2021/03/08 07:22:56;;;;;;;;;;;20.90;34.00;;;;;;499748;237;1184;-45
2021/03/08 07:24:57;;;;;;;;;;;20.90;33.90;;;;;;499894;237;1076;-45
2021/03/08 07:26:59;;;;;;;;;;;20.90;33.90;;;;;;499811;237;1137;-45
2021/03/08 07:29:00;;;;;;;;;;;20.90;33.90;;;;;;499749;237;1115;-45
2021/03/08 07:31:02;;;;;;;;;;;20.90;33.90;;;;;;499874;237;1088;-45
2021/03/08 07:33:04;;;;;;;;;;;20.90;33.90;;;;;;499765;237;1173;-45
2021/03/08 07:35:05;;;;;;;;;;;20.90;33.90;;;;;;499839;237;1114;-45
2021/03/08 07:37:06;;;;;;;;;;;20.90;33.90;;;;;;499732;237;1130;-45
2021/03/08 07:39:07;;;;;;;;;;;20.90;33.80;;;;;;499741;237;1197;-45
2021/03/08 07:41:08;;;;;;;;;;;20.90;33.80;;;;;;499718;237;2129;-45
2021/03/08 07:43:10;;;;;;;;;;;20.90;33.80;;;;;;499606;237;1122;-45
2021/03/08 07:45:11;;;;;;;;;;;20.90;33.80;;;;;;499591;237;1094;-46
2021/03/08 07:47:13;;;;;;;;;;;21.00;33.80;;;;;;499517;237;1049;-45
2021/03/08 07:49:14;;;;;;;;;;;21.00;33.80;;;;;;499546;237;1518;-45
2021/03/08 07:51:15;;;;;;;;;;;21.00;33.80;;;;;;499635;237;1119;-45
2021/03/08 07:53:17;;;;;;;;;;;21.00;33.80;;;;;;499534;237;1249;-45
2021/03/08 07:55:18;;;;;;;;;;;21.00;33.70;;;;;;499602;237;1201;-45
2021/03/08 07:57:19;;;;;;;;;;;21.00;33.70;;;;;;499312;237;1088;-45
2021/03/08 07:59:20;;;;;;;;;;;21.00;33.70;;;;;;499680;237;1087;-45
2021/03/08 08:01:22;;;;;;;;;;;21.00;33.70;;;;;;499691;237;2184;-45
2021/03/08 08:03:23;;;;;;;;;;;21.00;33.70;;;;;;499620;237;1159;-45
2021/03/08 08:05:24;;;;;;;;;;;21.00;33.70;;;;;;499597;237;1140;-45
2021/03/08 08:07:27;;;;;;;;;;;21.10;33.70;;;;;;499563;237;1162;-45
2021/03/08 08:09:30;;;;;;;;;;;21.10;33.70;;;;;;499598;237;1114;-45
2021/03/08 08:11:29;;;;;;;;;;;21.10;33.70;;;;;;499532;238;1517;-45
2021/03/08 08:13:30;;;;;;;;;;;21.10;33.70;;;;;;499575;237;1103;-45
2021/03/08 08:15:32;;;;;;;;;;;21.10;33.70;;;;;;499698;237;1071;-45
2021/03/08 08:17:33;;;;;;;;;;;21.10;33.70;;;;;;499686;237;1028;-45
2021/03/08 08:19:34;;;;;;;;;;;21.10;33.60;;;;;;499539;237;1203;-45
2021/03/08 08:21:36;;;;;;;;;;;21.10;33.60;;;;;;499354;237;2120;-45
2021/03/08 08:23:37;;;;;;;;;;;21.10;33.60;;;;;;499453;237;1111;-45
2021/03/08 08:25:38;;;;;;;;;;;21.10;33.60;;;;;;499617;237;1104;-45
2021/03/08 08:27:39;;;;;;;;;;;21.10;33.60;;;;;;499574;237;1206;-45
2021/03/08 08:29:41;;;;;;;;;;;21.10;33.60;;;;;;499686;237;1088;-45
2021/03/08 08:31:42;;;;;;;;;;;21.10;33.60;;;;;;499499;237;1170;-45
2021/03/08 08:33:44;;;;;;;;;;;21.20;33.60;;;;;;499524;237;1168;-45
2021/03/08 08:35:45;;;;;;;;;;;21.20;33.60;;;;;;499580;237;1051;-45
2021/03/08 08:37:46;;;;;;;;;;;21.20;33.60;;;;;;499508;237;1066;-45
2021/03/08 08:39:48;;;;;;;;;;;21.20;33.60;;;;;;499700;237;1291;-45
2021/03/08 08:41:50;;;;;;;;;;;21.20;33.60;;;;;;499587;237;2121;-45
2021/03/08 08:43:51;;;;;;;;;;;21.20;33.60;;;;;;499642;237;1076;-45
2021/03/08 08:45:52;;;;;;;;;;;21.20;33.60;;;;;;499716;237;1210;-45
2021/03/08 08:47:53;;;;;;;;;;;21.20;33.60;;;;;;499660;237;1049;-45
2021/03/08 08:49:55;;;;;;;;;;;21.20;33.60;;;;;;499790;237;1233;-45
2021/03/08 08:51:56;;;;;;;;;;;21.20;33.50;;;;;;499612;237;1107;-45
2021/03/08 08:53:59;;;;;;;;;;;21.20;33.50;;;;;;499555;237;1209;-45
2021/03/08 08:55:59;;;;;;;;;;;21.20;33.50;;;;;;499821;237;2026;-45
2021/03/08 08:58:00;;;;;;;;;;;21.20;33.50;;;;;;500385;238;893;-45
2021/03/08 09:00:06;;;;;;;;;;;21.20;33.50;;;;;;500174;237;1032;-45
2021/03/08 09:02:03;;;;;;;;;;;21.20;33.50;;;;;;499469;237;2179;-45
2021/03/08 09:04:04;;;;;;;;;;;21.30;33.50;;;;;;499564;237;1202;-45
2021/03/08 09:06:06;;;;;;;;;;;21.30;33.50;;;;;;499433;237;1089;-45
2021/03/08 09:08:07;;;;;;;;;;;21.30;33.40;;;;;;499535;237;1255;-45
2021/03/08 09:10:08;;;;;;;;;;;21.30;33.40;;;;;;499559;237;1132;-45
2021/03/08 09:12:09;;;;;;;;;;;21.30;33.40;;;;;;498841;237;1077;-45
2021/03/08 09:14:11;;;;;;;;;;;21.30;33.40;;;;;;499485;237;1094;-45
2021/03/08 09:16:12;;;;;;;;;;;21.30;33.40;;;;;;499357;237;1156;-45
2021/03/08 09:18:13;;;;;;;;;;;21.30;33.40;;;;;;498989;237;1192;-45
2021/03/08 09:20:15;;;;;;;;;;;21.30;33.40;;;;;;499308;237;2199;-45
2021/03/08 09:22:16;;;;;;;;;;;21.30;33.40;;;;;;499223;237;1278;-45
2021/03/08 09:24:17;;;;;;;;;;;21.30;33.40;;;;;;499493;237;1069;-45
2021/03/08 09:26:18;;;;;;;;;;;21.30;33.50;;;;;;499507;237;1523;-45
2021/03/08 09:28:20;;;;;;;;;;;21.30;33.50;;;;;;499577;237;1107;-45
2021/03/08 09:30:21;;;;;;;;;;;21.30;33.50;;;;;;499626;237;1160;-45
2021/03/08 09:32:22;;;;;;;;;;;21.30;33.40;;;;;;499706;237;1197;-45
2021/03/08 09:34:23;;;;;;;;;;;21.30;33.40;;;;;;499515;237;1254;-45
2021/03/08 09:36:25;;;;;;;;;;;21.30;33.40;;;;;;499428;237;1226;-45
2021/03/08 09:38:26;;;;;;;;;;;21.30;33.40;;;;;;499579;237;1097;-45
2021/03/08 09:40:28;;;;;;;;;;;21.30;33.50;;;;;;499487;237;2206;-45
2021/03/08 09:42:29;;;;;;;;;;;21.30;33.50;;;;;;499354;237;1128;-45
2021/03/08 09:44:30;;;;;;;;;;;21.30;33.40;;;;;;499507;237;1458;-45
2021/03/08 09:46:31;;;;;;;;;;;21.30;33.40;;;;;;499455;237;1132;-45
2021/03/08 09:48:34;;;;;;;;;;;21.40;33.40;;;;;;499533;237;1091;-45
2021/03/08 09:50:34;;;;;;;;;;;21.40;33.40;;;;;;499507;237;1688;-45
2021/03/08 09:52:35;;;;;;;;;;;21.30;33.40;;;;;;499520;237;1098;-45
2021/03/08 09:54:36;;;;;;;;;;;21.30;33.30;;;;;;499592;237;1055;-45
2021/03/08 09:56:38;;;;;;;;;;;21.30;33.30;;;;;;499501;237;1227;-45
2021/03/08 09:58:39;;;;;;;;;;;21.40;33.40;;;;;;499593;237;1059;-45
2021/03/08 10:00:40;;;;;;;;;;;21.40;33.40;;;;;;499411;237;2196;-45
2021/03/08 10:02:42;;;;;;;;;;;21.40;33.40;;;;;;499444;237;1212;-45
2021/03/08 10:04:43;;;;;;;;;;;21.40;33.30;;;;;;499507;237;1145;-45
2021/03/08 10:06:45;;;;;;;;;;;21.40;33.40;;;;;;499727;237;1142;-45
2021/03/08 10:08:47;;;;;;;;;;;21.40;33.40;;;;;;499699;237;1098;-45
2021/03/08 10:10:48;;;;;;;;;;;21.40;33.30;;;;;;499364;238;1155;-45
2021/03/08 10:12:49;;;;;;;;;;;21.40;33.30;;;;;;499430;237;1125;-45
2021/03/08 10:14:50;;;;;;;;;;;21.40;33.30;;;;;;499512;237;1062;-45
2021/03/08 10:16:52;;;;;;;;;;;21.40;33.30;;;;;;499565;237;1160;-45
2021/03/08 10:18:53;;;;;;;;;;;21.40;33.30;;;;;;499587;237;1058;-45
2021/03/08 10:20:54;;;;;;;;;;;21.40;33.30;;;;;;499555;237;2192;-45
2021/03/08 10:22:56;;;;;;;;;;;21.40;33.30;;;;;;499369;237;1135;-45
2021/03/08 10:24:58;;;;;;;;;;;21.40;33.40;;;;;;499608;237;1074;-45
2021/03/08 10:26:58;;;;;;;;;;;21.40;33.30;;;;;;499489;237;1774;-45
2021/03/08 10:28:59;;;;;;;;;;;21.40;33.30;;;;;;499595;237;1106;-45
2021/03/08 10:31:01;;;;;;;;;;;21.40;33.30;;;;;;499623;237;1331;-45
2021/03/08 10:33:02;;;;;;;;;;;21.40;33.30;;;;;;499547;237;1093;-45
2021/03/08 10:35:03;;;;;;;;;;;21.40;33.30;;;;;;499607;237;1160;-45
2021/03/08 10:37:04;;;;;;;;;;;21.40;33.40;;;;;;499609;237;1217;-45
2021/03/08 10:39:06;;;;;;;;;;;21.40;33.30;;;;;;499551;237;1058;-45
2021/03/08 10:41:07;;;;;;;;;;;21.40;33.30;;;;;;499469;237;2198;-45
2021/03/08 10:43:08;;;;;;;;;;;21.40;33.30;;;;;;499675;237;1095;-45
2021/03/08 10:45:10;;;;;;;;;;;21.40;33.40;;;;;;499718;237;1127;-45
2021/03/08 10:47:11;;;;;;;;;;;21.40;33.40;;;;;;499658;237;1070;-45
2021/03/08 10:49:12;;;;;;;;;;;21.40;33.30;;;;;;499704;237;1077;-45
2021/03/08 10:51:13;;;;;;;;;;;21.40;33.30;;;;;;499706;237;1190;-45
2021/03/08 10:53:16;;;;;;;;;;;21.40;33.30;;;;;;499685;237;1119;-45
2021/03/08 10:55:17;;;;;;;;;;;21.50;33.30;;;;;;499404;237;1092;-45
2021/03/08 10:57:18;;;;;;;;;;;21.40;33.30;;;;;;499289;237;1087;-45
2021/03/08 10:59:20;;;;;;;;;;;21.50;33.30;;;;;;499450;237;1084;-45
2021/03/08 11:01:21;;;;;;;;;;;21.40;33.30;;;;;;499552;237;2191;-45
2021/03/08 11:03:22;;;;;;;;;;;21.50;33.30;;;;;;499404;237;1157;-46
2021/03/08 11:05:25;;;;;;;;;;;21.50;33.30;;;;;;499465;234;1271;-45
2021/03/08 11:07:25;;;;;;;;;;;21.50;33.30;;;;;;499348;237;2166;-45
2021/03/08 11:09:26;;;;;;;;;;;21.50;33.30;;;;;;499495;237;1138;-45
2021/03/08 11:11:28;;;;;;;;;;;21.50;33.30;;;;;;499594;237;1067;-45
2021/03/08 11:13:29;;;;;;;;;;;21.50;33.30;;;;;;499639;237;1138;-45
2021/03/08 11:15:31;;;;;;;;;;;21.50;33.30;;;;;;499606;237;1115;-45
2021/03/08 11:17:32;;;;;;;;;;;21.50;33.30;;;;;;499434;237;1117;-45
2021/03/08 11:19:33;;;;;;;;;;;21.50;33.30;;;;;;499482;237;1071;-45
2021/03/08 11:21:34;;;;;;;;;;;21.50;33.20;;;;;;499480;237;2140;-44
2021/03/08 11:23:36;;;;;;;;;;;21.50;33.20;;;;;;499526;237;1080;-45
2021/03/08 11:25:37;;;;;;;;;;;21.50;33.30;;;;;;499467;237;1103;-45
2021/03/08 11:27:38;;;;;;;;;;;21.50;33.20;;;;;;499362;237;1161;-45
2021/03/08 11:29:40;;;;;;;;;;;21.50;33.20;;;;;;499523;237;1092;-45
2021/03/08 11:31:41;;;;;;;;;;;21.60;33.20;;;;;;499596;237;1220;-45
2021/03/08 11:33:42;;;;;;;;;;;21.50;33.20;;;;;;499539;237;1119;-45
2021/03/08 11:35:44;;;;;;;;;;;21.50;33.20;;;;;;499564;234;1310;-45
2021/03/08 11:37:45;;;;;;;;;;;21.50;33.30;;;;;;499616;237;1057;-45
2021/03/08 11:39:46;;;;;;;;;;;21.50;33.30;;;;;;499650;237;1335;-45
2021/03/08 11:41:47;;;;;;;;;;;21.50;33.30;;;;;;499324;237;2184;-45
2021/03/08 11:43:49;;;;;;;;;;;21.50;33.30;;;;;;499538;237;1085;-45
2021/03/08 11:45:50;;;;;;;;;;;21.50;33.20;;;;;;499438;237;1203;-45
2021/03/08 11:47:51;;;;;;;;;;;21.50;33.20;;;;;;499398;237;1076;-45
2021/03/08 11:49:52;;;;;;;;;;;21.50;33.20;;;;;;499550;237;1091;-45
2021/03/08 11:51:54;;;;;;;;;;;21.50;33.20;;;;;;499342;237;1518;-45
2021/03/08 11:53:55;;;;;;;;;;;21.60;33.20;;;;;;499409;237;1245;-45
2021/03/08 11:55:57;;;;;;;;;;;21.60;33.20;;;;;;499374;237;1379;-45